Time;durP1;ratioP1;P1;durP2;ratioP2;P2;SDS_P1;SDS_P2;PMS_P1;PMS_P2;Temp;Humidity;BMP_temperature;BMP_pressure;BME280_temperature;BME280_humidity;BME280_pressure;Samples;Min_cycle;Max_cycle;Signal;HPM_P1;HPM_P2
2022/01/22 00:00:15;;;;;;;1.07;0.20;;;-4.20;82.00;;;;;;5074190;28;20566;-76
2022/01/22 00:02:41;;;;;;;0.40;0.40;;;-4.20;81.90;;;;;;5060722;28;21034;-75
2022/01/22 00:05:08;;;;;;;0.10;0.10;;;-4.20;81.80;;;;;;5071596;28;20192;-75
2022/01/22 00:07:34;;;;;;;0.53;0.53;;;-4.10;81.70;;;;;;5075408;28;20280;-74
2022/01/22 00:10:05;;;;;;;0.30;0.30;;;-4.10;81.60;;;;;;5079408;28;20221;-76
2022/01/22 00:15:23;;;;;;;0.20;0.20;;;-4.10;81.10;;;;;;5005123;28;20201;-77
2022/01/22 00:17:50;;;;;;;0.20;0.20;;;-4.00;81.10;;;;;;5012380;28;20207;-76
2022/01/22 00:20:18;;;;;;;0.33;0.33;;;-4.10;81.00;;;;;;5009114;28;20201;-75
2022/01/22 00:22:45;;;;;;;0.20;0.20;;;-4.10;81.00;;;;;;5010157;28;20190;-75
2022/01/22 00:25:12;;;;;;;0.20;0.20;;;-4.10;81.10;;;;;;5012534;28;20178;-75
2022/01/22 00:27:40;;;;;;;1.80;0.57;;;-4.10;81.10;;;;;;5012505;28;20279;-75
2022/01/22 00:30:09;;;;;;;0.20;0.20;;;-4.10;81.20;;;;;;5013311;28;20184;-75
2022/01/22 00:32:35;;;;;;;0.33;0.33;;;-4.10;81.10;;;;;;5010156;28;20216;-75
2022/01/22 00:35:02;;;;;;;0.30;0.30;;;-4.10;81.30;;;;;;5007573;28;20744;-75
2022/01/22 00:37:27;;;;;;;0.40;0.40;;;-4.10;81.20;;;;;;4996869;28;20223;-75
2022/01/22 00:39:53;;;;;;;0.77;0.50;;;-4.00;81.20;;;;;;5006630;28;20199;-75
2022/01/22 00:42:21;;;;;;;0.40;0.40;;;-4.00;80.90;;;;;;5006966;28;20193;-75
2022/01/22 00:44:49;;;;;;;0.10;0.10;;;-4.00;80.90;;;;;;5013827;28;20222;-75
2022/01/22 00:47:16;;;;;;;0.93;0.30;;;-4.00;80.70;;;;;;5005567;28;20244;-75
2022/01/22 00:49:41;;;;;;;1.90;0.50;;;-4.00;80.60;;;;;;5010613;28;20190;-75
2022/01/22 00:52:07;;;;;;;1.03;0.20;;;-4.00;80.60;;;;;;5032762;28;20629;-75
2022/01/22 00:54:34;;;;;;;0.87;0.87;;;-4.00;80.80;;;;;;5072362;28;20177;-74
2022/01/22 00:56:59;;;;;;;1.90;0.23;;;-4.00;80.80;;;;;;5073036;28;20215;-75
2022/01/22 00:59:25;;;;;;;0.20;0.20;;;-4.00;80.60;;;;;;5065481;28;20186;-74
2022/01/22 01:01:51;;;;;;;0.10;0.10;;;-4.00;80.60;;;;;;5074002;28;20666;-76
2022/01/22 01:04:17;;;;;;;0.20;0.20;;;-4.00;80.50;;;;;;5070804;28;20196;-75
2022/01/22 01:06:43;;;;;;;0.33;0.33;;;-4.00;80.20;;;;;;5075525;28;20242;-75
2022/01/22 01:09:10;;;;;;;1.80;0.40;;;-4.00;80.30;;;;;;5076371;28;20186;-75
2022/01/22 01:11:43;;;;;;;0.23;0.17;;;-4.00;80.30;;;;;;5069074;28;20210;-75
2022/01/22 01:14:12;;;;;;;0.77;0.43;;;-4.00;80.10;;;;;;5068071;28;20208;-75
2022/01/22 01:33:01;;;;;;;0.17;0.17;;;-3.90;79.60;;;;;;5066974;28;20258;-75
2022/01/22 01:35:29;;;;;;;0.57;0.23;;;-3.90;79.30;;;;;;5073448;28;20175;-75
2022/01/22 01:37:57;;;;;;;0.43;0.43;;;-3.90;79.30;;;;;;5072882;28;20256;-75
2022/01/22 01:40:25;;;;;;;0.23;0.23;;;-3.90;79.50;;;;;;5068618;28;20312;-76
2022/01/22 01:45:26;;;;;;;0.80;0.70;;;-3.80;79.10;;;;;;5066988;28;20210;-76
2022/01/22 01:47:58;;;;;;;2.53;0.30;;;-3.80;79.20;;;;;;5072055;28;20268;-75
2022/01/22 01:50:25;;;;;;;0.40;0.40;;;-3.80;79.10;;;;;;5069365;28;20179;-76
2022/01/22 01:53:19;;;;;;;0.10;0.10;;;-3.80;78.80;;;;;;5071499;28;20180;-75
2022/01/22 01:56:00;;;;;;;1.40;0.50;;;-3.80;78.90;;;;;;5070894;28;20938;-75
2022/01/22 01:58:30;;;;;;;0.10;0.10;;;-3.70;78.80;;;;;;5067978;28;20185;-75
2022/01/22 02:00:57;;;;;;;3.40;0.70;;;-3.70;78.70;;;;;;5067708;28;20193;-74
2022/01/22 02:03:23;;;;;;;0.27;0.27;;;-3.70;78.50;;;;;;5068177;28;20182;-75
2022/01/22 02:05:50;;;;;;;0.10;0.10;;;-3.70;78.00;;;;;;5072500;28;20185;-73
2022/01/22 02:08:18;;;;;;;0.10;0.10;;;-3.60;78.10;;;;;;5071249;28;20200;-74
2022/01/22 02:10:52;;;;;;;0.20;0.20;;;-3.60;78.00;;;;;;5073231;28;20185;-74
2022/01/22 02:24:18;;;;;;;0.40;0.40;;;-3.50;78.20;;;;;;5073838;28;20246;-75
2022/01/22 02:26:49;;;;;;;0.10;0.10;;;-3.50;77.90;;;;;;5067393;28;20668;-75
2022/01/22 02:29:17;;;;;;;0.10;0.10;;;-3.50;77.80;;;;;;5073147;28;20578;-75
2022/01/22 02:31:57;;;;;;;0.30;0.30;;;-3.50;77.50;;;;;;5063710;28;20228;-75
2022/01/22 02:34:37;;;;;;;0.30;0.30;;;-3.50;77.30;;;;;;5070934;28;20209;-76
2022/01/22 02:37:11;;;;;;;0.10;0.10;;;-3.50;77.40;;;;;;5064599;28;20219;-75
2022/01/22 02:39:44;;;;;;;0.00;0.00;;;-3.60;76.80;;;;;;5071075;28;20263;-75
2022/01/22 02:42:11;;;;;;;0.30;0.30;;;-3.60;77.10;;;;;;5067376;28;20190;-75
2022/01/22 02:44:46;;;;;;;0.10;0.10;;;-3.70;76.90;;;;;;5073903;28;20191;-75
2022/01/22 02:47:15;;;;;;;0.20;0.20;;;-3.70;76.90;;;;;;5065057;28;20217;-77
2022/01/22 02:49:41;;;;;;;3.83;0.27;;;-3.80;77.40;;;;;;5076912;28;20609;-75
2022/01/22 02:52:08;;;;;;;0.57;0.43;;;-3.90;77.50;;;;;;5067009;28;20263;-74
2022/01/22 02:54:35;;;;;;;0.20;0.20;;;-3.90;77.70;;;;;;5065297;28;20247;-75
2022/01/22 02:57:01;;;;;;;0.53;0.47;;;-4.00;77.80;;;;;;5062856;28;20211;-74
2022/01/22 02:59:26;;;;;;;1.60;0.30;;;-4.00;78.10;;;;;;5072787;28;20210;-74
2022/01/22 03:01:53;;;;;;;0.10;0.10;;;-4.00;78.10;;;;;;5063885;28;20182;-74
2022/01/22 03:04:19;;;;;;;0.10;0.10;;;-4.10;77.90;;;;;;5074228;28;20213;-75
2022/01/22 03:06:47;;;;;;;0.13;0.10;;;-4.10;78.00;;;;;;5068100;28;20184;-75
2022/01/22 03:09:15;;;;;;;1.70;0.20;;;-4.10;77.70;;;;;;5076743;28;20183;-74
2022/01/22 03:17:48;;;;;;;1.13;0.40;;;-4.10;77.70;;;;;;5037146;28;20259;-75
2022/01/22 03:27:52;;;;;;;0.30;0.30;;;-4.10;77.50;;;;;;5041039;28;20598;-74
2022/01/22 03:30:18;;;;;;;0.10;0.10;;;-4.20;77.40;;;;;;5040691;28;20188;-75
2022/01/22 03:32:49;;;;;;;0.10;0.10;;;-4.20;77.40;;;;;;5037040;28;20747;-75
2022/01/22 03:37:49;;;;;;;0.30;0.30;;;-4.20;77.40;;;;;;5041659;28;20224;-74
2022/01/22 03:40:15;;;;;;;0.10;0.10;;;-4.30;77.60;;;;;;5043395;28;20177;-75
2022/01/22 03:42:41;;;;;;;0.20;0.20;;;-4.30;77.70;;;;;;5041071;28;20582;-75
2022/01/22 03:45:10;;;;;;;0.10;0.10;;;-4.30;77.60;;;;;;5040946;28;20200;-74
2022/01/22 03:47:36;;;;;;;0.47;0.47;;;-4.30;77.60;;;;;;5043795;28;20579;-74
2022/01/22 03:50:04;;;;;;;1.73;0.33;;;-4.30;77.50;;;;;;5023486;28;20191;-74
2022/01/22 03:52:30;;;;;;;0.00;0.00;;;-4.30;77.50;;;;;;5080968;28;20195;-74
2022/01/22 03:54:56;;;;;;;0.20;0.20;;;-4.30;77.70;;;;;;5078718;28;20188;-75
2022/01/22 03:57:25;;;;;;;0.27;0.27;;;-4.30;77.90;;;;;;5069161;28;20248;-75
2022/01/22 03:59:53;;;;;;;0.40;0.40;;;-4.30;77.70;;;;;;5089931;28;20176;-75
2022/01/22 04:04:52;;;;;;;0.93;0.40;;;-4.20;77.90;;;;;;5069045;28;20181;-74
2022/01/22 04:09:45;;;;;;;0.37;0.37;;;-4.10;77.40;;;;;;5074847;28;20211;-74
2022/01/22 04:12:19;;;;;;;0.20;0.20;;;-4.10;77.40;;;;;;5075706;28;20302;-74
2022/01/22 04:14:54;;;;;;;0.10;0.10;;;-4.10;77.50;;;;;;5072356;28;20192;-75
2022/01/22 04:25:32;;;;;;;0.27;0.27;;;-4.10;77.30;;;;;;5073263;28;20171;-75
2022/01/22 04:27:58;;;;;;;0.20;0.20;;;-4.10;77.10;;;;;;5072277;28;20176;-74
2022/01/22 04:30:25;;;;;;;2.00;0.50;;;-4.10;77.20;;;;;;5072769;28;20195;-74
2022/01/22 04:32:51;;;;;;;0.00;0.00;;;-4.10;77.40;;;;;;5077957;28;20180;-75
2022/01/22 04:35:18;;;;;;;0.10;0.10;;;-4.10;77.20;;;;;;5068890;28;20208;-74
2022/01/22 04:37:45;;;;;;;0.47;0.47;;;-4.10;77.20;;;;;;5072796;28;20211;-74
2022/01/22 04:40:12;;;;;;;0.13;0.13;;;-4.10;77.20;;;;;;5068540;28;20288;-74
2022/01/22 04:42:40;;;;;;;0.20;0.20;;;-4.10;77.40;;;;;;5072593;28;20248;-76
2022/01/22 04:45:43;;;;;;;0.10;0.10;;;-4.10;77.80;;;;;;5066288;28;20192;-73
2022/01/22 04:55:37;;;;;;;0.10;0.10;;;-4.00;78.30;;;;;;5072771;28;20185;-74
2022/01/22 04:58:03;;;;;;;0.30;0.30;;;-4.00;78.30;;;;;;5072964;28;20203;-73
2022/01/22 05:00:36;;;;;;;0.10;0.10;;;-3.90;78.50;;;;;;5067524;28;20242;-75
2022/01/22 05:03:03;;;;;;;0.60;0.20;;;-3.90;78.60;;;;;;5077716;28;20176;-74
2022/01/22 05:05:29;;;;;;;0.20;0.20;;;-3.90;78.50;;;;;;5072171;28;20685;-74
2022/01/22 05:07:55;;;;;;;0.00;0.00;;;-3.90;78.80;;;;;;5063502;28;20184;-75
2022/01/22 05:10:21;;;;;;;0.20;0.20;;;-3.80;78.80;;;;;;5070761;28;20182;-74
2022/01/22 05:12:47;;;;;;;0.20;0.20;;;-3.80;78.90;;;;;;5070941;28;20184;-74
2022/01/22 05:15:16;;;;;;;0.17;0.17;;;-3.70;79.10;;;;;;5068726;28;20191;-74
2022/01/22 05:17:43;;;;;;;0.20;0.20;;;-3.70;78.80;;;;;;5076734;28;20539;-74
2022/01/22 05:20:19;;;;;;;0.40;0.30;;;-3.70;78.90;;;;;;5069018;28;20182;-73
2022/01/22 05:25:24;;;;;;;0.20;0.20;;;-3.80;78.90;;;;;;5073174;28;20189;-75
2022/01/22 05:28:07;;;;;;;0.20;0.20;;;-3.80;79.10;;;;;;5073816;28;20696;-75
2022/01/22 05:36:53;;;;;;;5.07;0.33;;;-3.80;79.30;;;;;;5077463;28;20690;-75
2022/01/22 05:38:34;;;;;;;0.50;0.50;;;-4.00;79.40;;;;;;5077310;28;20217;-74
2022/01/22 05:41:02;;;;;;;0.73;0.20;;;-4.00;79.80;;;;;;5072189;28;20183;-75
2022/01/22 05:43:27;;;;;;;0.20;0.20;;;-4.00;79.60;;;;;;5066681;28;20232;-75
2022/01/22 05:45:54;;;;;;;0.57;0.40;;;-4.10;79.60;;;;;;5072397;28;20183;-74
2022/01/22 05:48:19;;;;;;;0.27;0.27;;;-4.10;79.70;;;;;;5067903;28;20179;-74
2022/01/22 05:50:59;;;;;;;0.97;0.53;;;-4.10;79.90;;;;;;5071609;28;20280;-75
2022/01/22 06:01:20;;;;;;;0.30;0.30;;;-4.10;81.00;;;;;;5068718;28;20190;-75
2022/01/22 06:03:46;;;;;;;0.40;0.40;;;-4.10;81.10;;;;;;5064832;28;21254;-76
2022/01/22 06:06:13;;;;;;;0.67;0.67;;;-4.10;81.30;;;;;;5057001;28;21125;-76
2022/01/22 06:08:47;;;;;;;0.10;0.10;;;-4.10;81.30;;;;;;5066030;28;20175;-75
2022/01/22 06:11:21;;;;;;;0.10;0.10;;;-4.10;81.20;;;;;;5066037;28;20204;-75
2022/01/22 06:13:48;;;;;;;0.10;0.10;;;-4.00;81.30;;;;;;5062476;28;20176;-75
2022/01/22 06:16:20;;;;;;;0.10;0.10;;;-4.00;81.20;;;;;;5063060;28;20215;-74
2022/01/22 06:18:46;;;;;;;0.30;0.30;;;-4.00;81.00;;;;;;5065258;28;20185;-76
2022/01/22 06:21:12;;;;;;;0.83;0.20;;;-3.90;81.00;;;;;;5066266;28;20297;-76
2022/01/22 06:23:39;;;;;;;0.33;0.33;;;-3.90;80.70;;;;;;5065296;28;20856;-74
2022/01/22 06:26:06;;;;;;;0.60;0.60;;;-3.90;80.50;;;;;;5062514;28;20642;-75
2022/01/22 06:28:33;;;;;;;0.30;0.30;;;-3.90;80.40;;;;;;5064153;28;20199;-75
2022/01/22 06:30:59;;;;;;;0.17;0.17;;;-3.90;80.50;;;;;;5064599;28;20209;-73
2022/01/22 06:33:26;;;;;;;0.10;0.10;;;-3.90;80.50;;;;;;5070317;28;20236;-75
2022/01/22 06:35:52;;;;;;;0.43;0.43;;;-4.00;80.30;;;;;;5064119;28;20193;-76
2022/01/22 06:38:19;;;;;;;0.30;0.30;;;-4.00;80.00;;;;;;5062076;28;20644;-76
2022/01/22 06:43:30;;;;;;;0.53;0.30;;;-4.00;79.80;;;;;;5062258;28;20188;-76
2022/01/22 06:45:57;;;;;;;4.73;0.30;;;-4.00;79.80;;;;;;5064317;28;21573;-75
2022/01/22 06:48:23;;;;;;;0.53;0.40;;;-3.90;79.80;;;;;;5071901;28;20553;-75
2022/01/22 06:50:49;;;;;;;0.10;0.10;;;-3.90;79.50;;;;;;5058784;28;20339;-75
2022/01/22 06:53:14;;;;;;;0.83;0.63;;;-3.90;79.00;;;;;;5066894;28;20715;-75
2022/01/22 06:55:44;;;;;;;0.20;0.20;;;-3.90;79.00;;;;;;5064505;28;20182;-74
2022/01/22 06:58:11;;;;;;;0.10;0.10;;;-3.90;79.10;;;;;;5061941;28;20224;-76
2022/01/22 07:00:37;;;;;;;0.20;0.20;;;-3.80;79.20;;;;;;5070507;28;20180;-75
2022/01/22 07:03:05;;;;;;;0.43;0.43;;;-3.80;79.20;;;;;;5066899;28;20188;-76
2022/01/22 07:05:33;;;;;;;0.20;0.20;;;-3.70;79.00;;;;;;5086842;28;20170;-75
2022/01/22 07:07:59;;;;;;;0.20;0.20;;;-3.70;78.40;;;;;;5068768;28;20227;-76
2022/01/22 07:10:25;;;;;;;0.10;0.10;;;-3.60;78.50;;;;;;5058411;28;20707;-75
2022/01/22 07:12:50;;;;;;;1.60;0.40;;;-3.60;78.60;;;;;;5069029;28;20191;-77
2022/01/22 07:15:17;;;;;;;0.27;0.20;;;-3.60;78.70;;;;;;5068230;28;20220;-76
2022/01/22 07:17:44;;;;;;;0.30;0.30;;;-3.30;78.80;;;;;;5061331;28;20300;-76
2022/01/22 07:20:15;;;;;;;0.27;0.23;;;-3.00;78.10;;;;;;5060227;28;20189;-76
2022/01/22 07:22:54;;;;;;;0.40;0.40;;;-2.60;77.10;;;;;;5064913;28;20268;-77
2022/01/22 07:25:20;;;;;;;0.20;0.20;;;-2.50;77.00;;;;;;5063823;28;20686;-77
2022/01/22 07:27:46;;;;;;;0.10;0.10;;;-1.80;76.30;;;;;;5060155;28;20357;-76
2022/01/22 07:30:13;;;;;;;0.30;0.30;;;-1.80;76.30;;;;;;5059782;28;20668;-77
2022/01/22 07:32:43;;;;;;;0.93;0.37;;;-1.30;75.10;;;;;;5069445;28;20181;-76
2022/01/22 07:35:10;;;;;;;0.30;0.30;;;-1.00;74.50;;;;;;5067285;28;20214;-76
2022/01/22 07:37:36;;;;;;;0.20;0.20;;;-0.60;74.10;;;;;;5068215;28;20869;-77
2022/01/22 07:40:05;;;;;;;0.53;0.50;;;-0.20;73.70;;;;;;5063461;28;20186;-76
2022/01/22 07:42:32;;;;;;;0.30;0.30;;;0.20;72.30;;;;;;5063637;28;20182;-76
2022/01/22 07:44:58;;;;;;;2.47;0.40;;;0.40;70.50;;;;;;5059839;28;20189;-76
2022/01/22 07:47:24;;;;;;;0.60;0.53;;;0.10;70.00;;;;;;5055121;28;20179;-75
2022/01/22 07:49:49;;;;;;;0.20;0.20;;;-0.20;70.50;;;;;;5064057;28;20183;-72
2022/01/22 07:52:15;;;;;;;0.53;0.50;;;-0.50;70.90;;;;;;5066348;28;20249;-73
2022/01/22 07:54:41;;;;;;;1.17;0.57;;;-1.10;72.00;;;;;;5068056;28;20264;-71
2022/01/22 07:57:07;;;;;;;0.30;0.30;;;-1.00;72.10;;;;;;5067285;28;20214;-72
2022/01/22 07:59:33;;;;;;;0.53;0.53;;;-1.00;72.40;;;;;;5067673;28;20190;-74
2022/01/22 08:02:00;;;;;;;0.13;0.13;;;-1.00;72.20;;;;;;5069047;28;20186;-71
2022/01/22 08:04:26;;;;;;;0.20;0.20;;;-1.10;71.60;;;;;;5073078;28;20656;-71
2022/01/22 08:06:53;;;;;;;0.50;0.50;;;-1.10;72.00;;;;;;5065260;28;20253;-71
2022/01/22 08:09:20;;;;;;;0.40;0.40;;;-0.90;72.30;;;;;;5061279;28;20199;-71
2022/01/22 08:11:48;;;;;;;0.67;0.67;;;-0.40;71.70;;;;;;5070481;28;20191;-71
2022/01/22 08:14:13;;;;;;;0.63;0.50;;;0.10;70.90;;;;;;5073188;28;20193;-70
2022/01/22 08:16:39;;;;;;;0.30;0.30;;;0.50;69.60;;;;;;5072348;28;20684;-71
2022/01/22 08:19:05;;;;;;;0.40;0.40;;;0.70;68.30;;;;;;5069707;28;20191;-70
2022/01/22 08:21:32;;;;;;;0.20;0.20;;;0.80;68.70;;;;;;5068641;28;20182;-71
2022/01/22 08:23:58;;;;;;;0.63;0.30;;;0.90;68.30;;;;;;5076987;28;20182;-71
2022/01/22 08:26:28;;;;;;;0.40;0.40;;;1.20;68.40;;;;;;5066066;28;20186;-71
2022/01/22 08:28:55;;;;;;;0.73;0.50;;;1.70;67.70;;;;;;5078624;28;20191;-71
2022/01/22 08:31:39;;;;;;;0.30;0.30;;;2.10;66.70;;;;;;5072644;28;20181;-71
2022/01/22 08:36:51;;;;;;;1.23;0.60;;;2.90;64.10;;;;;;5067054;28;20648;-71
2022/01/22 08:39:18;;;;;;;1.60;1.03;;;3.00;63.30;;;;;;5071355;28;20176;-71
2022/01/22 08:41:44;;;;;;;1.07;0.40;;;3.20;63.80;;;;;;5069871;28;20182;-71
2022/01/22 08:44:10;;;;;;;0.53;0.40;;;3.50;62.80;;;;;;5066692;28;20597;-71
2022/01/22 08:46:37;;;;;;;0.50;0.50;;;3.60;61.70;;;;;;5071956;28;20182;-70
2022/01/22 08:49:07;;;;;;;0.40;0.40;;;3.50;61.20;;;;;;5069500;28;20179;-73
2022/01/22 08:51:34;;;;;;;0.67;0.50;;;3.50;61.60;;;;;;5072635;28;20633;-72
2022/01/22 08:54:01;;;;;;;1.07;0.37;;;3.60;61.90;;;;;;5065814;28;20631;-72
2022/01/22 08:56:28;;;;;;;0.37;0.37;;;3.10;61.70;;;;;;5062142;28;20221;-72
2022/01/22 08:58:54;;;;;;;0.50;0.50;;;3.10;61.70;;;;;;5066251;28;20647;-72
2022/01/22 09:01:20;;;;;;;0.40;0.40;;;2.90;62.20;;;;;;5065251;28;20186;-72
2022/01/22 09:03:46;;;;;;;0.30;0.30;;;2.90;63.80;;;;;;5068360;28;20186;-73
2022/01/22 09:06:12;;;;;;;0.40;0.40;;;2.90;68.30;;;;;;5074203;28;20178;-71
2022/01/22 09:08:39;;;;;;;0.53;0.53;;;2.60;65.80;;;;;;5068476;28;20532;-71
2022/01/22 09:11:06;;;;;;;0.30;0.30;;;2.10;65.40;;;;;;5068284;28;20708;-73
2022/01/22 09:13:32;;;;;;;0.30;0.30;;;1.80;68.80;;;;;;5069663;28;20178;-72
2022/01/22 09:15:59;;;;;;;0.50;0.50;;;1.30;67.40;;;;;;5065656;28;20182;-71
2022/01/22 09:18:25;;;;;;;0.57;0.57;;;1.20;68.80;;;;;;5069265;28;20277;-71
2022/01/22 09:23:18;;;;;;;0.73;0.73;;;1.70;67.40;;;;;;5063441;28;20183;-69
2022/01/22 09:25:45;;;;;;;0.70;0.70;;;1.80;67.00;;;;;;5064200;28;20186;-70
2022/01/22 09:28:13;;;;;;;0.63;0.63;;;2.20;66.90;;;;;;5072045;28;20217;-70
2022/01/22 09:30:40;;;;;;;1.20;1.20;;;2.50;67.30;;;;;;5061028;28;20172;-70
2022/01/22 09:33:06;;;;;;;0.70;0.70;;;2.80;66.40;;;;;;5071057;28;20190;-74
2022/01/22 09:35:32;;;;;;;0.40;0.40;;;2.90;64.10;;;;;;5072731;28;20178;-69
2022/01/22 09:37:58;;;;;;;0.43;0.43;;;3.00;63.80;;;;;;5073992;28;20677;-69
2022/01/22 09:40:26;;;;;;;0.90;0.90;;;2.90;62.30;;;;;;5071449;28;20181;-70
2022/01/22 09:42:51;;;;;;;0.60;0.60;;;2.80;62.30;;;;;;5065966;28;20179;-69
2022/01/22 09:45:17;;;;;;;0.37;0.37;;;3.00;63.00;;;;;;5065777;28;20727;-69
2022/01/22 09:47:47;;;;;;;0.80;0.80;;;3.20;62.20;;;;;;5069894;28;20182;-69
2022/01/22 09:50:13;;;;;;;0.30;0.30;;;3.40;61.80;;;;;;5068234;28;20261;-72
2022/01/22 09:52:39;;;;;;;0.60;0.60;;;3.40;60.90;;;;;;5060021;28;20174;-69
2022/01/22 09:55:06;;;;;;;0.43;0.40;;;3.60;61.40;;;;;;5068641;28;20473;-70
2022/01/22 09:57:34;;;;;;;2.60;1.10;;;3.90;60.70;;;;;;5079696;28;20218;-70
2022/01/22 10:00:00;;;;;;;0.97;0.93;;;4.10;60.10;;;;;;5085365;28;20239;-69
2022/01/22 10:02:27;;;;;;;1.63;0.73;;;4.20;59.70;;;;;;5073000;28;20671;-70
2022/01/22 10:04:52;;;;;;;0.67;0.67;;;4.40;59.30;;;;;;5075646;28;20313;-69
2022/01/22 10:07:21;;;;;;;0.60;0.60;;;4.30;58.10;;;;;;5067733;28;20736;-70
2022/01/22 10:10:04;;;;;;;2.53;0.70;;;4.30;59.10;;;;;;5075652;28;20189;-70
2022/01/22 10:12:41;;;;;;;0.80;0.80;;;4.50;59.00;;;;;;5069468;28;20323;-70
2022/01/22 10:15:12;;;;;;;1.30;0.50;;;4.30;58.00;;;;;;5066387;28;20271;-72
2022/01/22 10:17:40;;;;;;;0.60;0.60;;;4.20;58.70;;;;;;5062246;28;20215;-72
2022/01/22 10:20:35;;;;;;;2.07;1.00;;;4.30;60.10;;;;;;5070734;28;20193;-71
2022/01/22 10:23:04;;;;;;;0.93;0.93;;;4.70;59.30;;;;;;5066295;28;20206;-73
2022/01/22 10:25:36;;;;;;;1.07;0.70;;;5.00;58.80;;;;;;5067696;28;20194;-73
2022/01/22 10:28:17;;;;;;;0.67;0.47;;;4.90;57.90;;;;;;5066699;28;20209;-72
2022/01/22 10:30:45;;;;;;;2.37;0.60;;;4.70;57.70;;;;;;5065081;28;20257;-72
2022/01/22 10:36:19;;;;;;;1.00;0.60;;;2.90;59.40;;;;;;5064197;28;20193;-75
2022/01/22 10:38:50;;;;;;;0.30;0.30;;;1.80;61.30;;;;;;5067940;28;20226;-74
2022/01/22 10:41:30;;;;;;;0.57;0.57;;;1.80;62.70;;;;;;5065384;28;20571;-73
2022/01/22 10:43:56;;;;;;;1.50;1.07;;;2.10;63.40;;;;;;5069331;28;20545;-69
2022/01/22 10:46:42;;;;;;;0.60;0.43;;;2.50;62.20;;;;;;5066991;28;20248;-69
2022/01/22 10:49:28;;;;;;;0.63;0.63;;;2.90;61.60;;;;;;5069272;28;20198;-69
2022/01/22 10:51:59;;;;;;;0.90;0.90;;;3.30;61.30;;;;;;5072883;28;20265;-69
2022/01/22 10:54:27;;;;;;;0.60;0.60;;;3.70;60.30;;;;;;5070556;28;20280;-69
2022/01/22 10:56:54;;;;;;;0.50;0.50;;;3.90;59.70;;;;;;5074285;28;20210;-69
2022/01/22 10:59:22;;;;;;;0.67;0.67;;;4.30;59.10;;;;;;5070479;28;20201;-69
2022/01/22 11:02:01;;;;;;;0.43;0.43;;;4.80;58.40;;;;;;5069054;28;20182;-69
2022/01/22 11:04:32;;;;;;;0.93;0.73;;;5.10;57.10;;;;;;5066411;28;20468;-69
2022/01/22 11:07:05;;;;;;;0.40;0.40;;;5.20;56.10;;;;;;5071115;28;20182;-69
2022/01/22 11:09:32;;;;;;;0.30;0.30;;;5.00;55.70;;;;;;5069609;28;20205;-71
2022/01/22 11:11:59;;;;;;;0.53;0.53;;;4.40;56.10;;;;;;5077360;28;20222;-68
2022/01/22 11:14:28;;;;;;;0.40;0.40;;;4.00;57.90;;;;;;5072929;28;20182;-69
2022/01/22 11:16:54;;;;;;;0.60;0.60;;;4.10;58.10;;;;;;5070686;28;20206;-69
2022/01/22 11:19:34;;;;;;;0.40;0.40;;;4.10;57.70;;;;;;5066593;28;20182;-70
2022/01/22 11:22:15;;;;;;;1.07;0.50;;;4.10;56.80;;;;;;5074393;28;20170;-69
2022/01/22 11:24:47;;;;;;;0.60;0.60;;;3.90;57.20;;;;;;5076764;28;20182;-68
2022/01/22 11:27:18;;;;;;;0.40;0.30;;;3.50;57.30;;;;;;5076218;28;20182;-69
2022/01/22 11:29:58;;;;;;;0.70;0.70;;;3.10;58.10;;;;;;5075123;28;20722;-70
2022/01/22 11:32:48;;;;;;;0.40;0.40;;;2.70;59.20;;;;;;5072648;28;20258;-70
2022/01/22 11:35:21;;;;;;;0.60;0.60;;;2.30;60.10;;;;;;5059889;28;20191;-70
2022/01/22 11:37:50;;;;;;;0.40;0.40;;;1.90;61.40;;;;;;5065091;28;20786;-69
2022/01/22 11:40:22;;;;;;;0.70;0.70;;;1.80;62.10;;;;;;5068882;28;20258;-68
2022/01/22 11:43:06;;;;;;;0.80;0.70;;;1.60;62.70;;;;;;5070949;28;20166;-71
2022/01/22 11:45:43;;;;;;;1.00;0.60;;;1.40;63.80;;;;;;5063342;28;20171;-70
2022/01/22 11:48:09;;;;;;;0.47;0.47;;;1.30;63.70;;;;;;5067893;28;20186;-70
2022/01/22 11:50:35;;;;;;;1.07;1.00;;;1.30;64.50;;;;;;5072944;28;20178;-71
2022/01/22 11:53:29;;;;;;;0.60;0.60;;;1.30;64.60;;;;;;5071784;28;20186;-69
2022/01/22 11:56:26;;;;;;;1.50;0.60;;;1.20;64.80;;;;;;5063954;28;20740;-69
2022/01/22 11:59:02;;;;;;;1.40;0.43;;;1.20;65.30;;;;;;5066441;28;20588;-69
2022/01/22 12:01:50;;;;;;;1.23;0.90;;;0.90;65.60;;;;;;5061233;28;20279;-69
2022/01/22 12:04:18;;;;;;;0.60;0.53;;;0.80;66.50;;;;;;5065903;28;20179;-69
2022/01/22 12:07:05;;;;;;;0.43;0.40;;;0.70;66.90;;;;;;5071845;28;20205;-69
2022/01/22 12:15:39;;;;;;;0.40;0.40;;;0.40;67.60;;;;;;5076059;28;20202;-70
2022/01/22 12:18:14;;;;;;;1.00;1.00;;;0.20;68.90;;;;;;5073684;28;20218;-69
2022/01/22 12:23:39;;;;;;;1.40;0.47;;;0.00;70.80;;;;;;5078778;28;20189;-69
2022/01/22 12:26:06;;;;;;;0.40;0.40;;;-0.10;71.80;;;;;;5078636;28;20239;-69
2022/01/22 12:28:39;;;;;;;3.30;0.73;;;-0.20;72.70;;;;;;5075630;28;20630;-70
2022/01/22 12:31:15;;;;;;;0.57;0.57;;;-0.30;73.10;;;;;;5073346;28;20584;-69
2022/01/22 12:33:41;;;;;;;0.23;0.23;;;-0.30;74.10;;;;;;5074023;28;20185;-70
2022/01/22 12:36:18;;;;;;;2.53;0.70;;;-0.30;74.70;;;;;;5077170;28;20692;-70
2022/01/22 12:38:57;;;;;;;1.13;0.80;;;-0.30;75.60;;;;;;5075582;28;20265;-69
2022/01/22 12:41:30;;;;;;;0.53;0.53;;;-0.30;76.50;;;;;;5069210;28;20191;-70
2022/01/22 12:44:08;;;;;;;0.70;0.70;;;-0.30;77.20;;;;;;5069220;28;20206;-69
2022/01/22 12:46:36;;;;;;;0.50;0.50;;;-0.30;76.70;;;;;;5073055;28;20174;-70
2022/01/22 12:49:07;;;;;;;0.60;0.60;;;-0.30;75.30;;;;;;5073375;28;20562;-69
2022/01/22 12:51:35;;;;;;;0.50;0.50;;;-0.30;75.40;;;;;;5075144;28;20170;-70
2022/01/22 12:54:02;;;;;;;0.57;0.57;;;-0.30;75.10;;;;;;5070446;28;20183;-70
2022/01/22 12:59:09;;;;;;;0.53;0.53;;;-0.10;74.70;;;;;;5071351;28;20186;-70
2022/01/22 13:01:37;;;;;;;2.37;0.63;;;-0.10;73.70;;;;;;5081237;28;20768;-70
2022/01/22 13:04:07;;;;;;;0.40;0.40;;;-0.10;73.20;;;;;;5078806;28;20268;-70
2022/01/22 13:06:44;;;;;;;0.13;0.13;;;-0.20;72.70;;;;;;5078685;28;20174;-69
2022/01/22 13:09:11;;;;;;;0.63;0.20;;;-0.30;73.00;;;;;;5072190;28;20197;-69
2022/01/22 13:11:46;;;;;;;0.30;0.30;;;-0.30;73.00;;;;;;5075323;28;20178;-69
2022/01/22 13:14:17;;;;;;;0.23;0.23;;;-0.40;72.80;;;;;;5079686;28;20228;-69
2022/01/22 13:16:51;;;;;;;0.87;0.87;;;-0.60;73.00;;;;;;5068886;28;20210;-69
2022/01/22 13:19:18;;;;;;;0.50;0.50;;;-0.60;73.40;;;;;;5070586;28;20796;-70
2022/01/22 13:21:56;;;;;;;0.50;0.50;;;-0.70;73.70;;;;;;5063991;28;20180;-70
2022/01/22 13:24:27;;;;;;;0.40;0.40;;;-0.70;73.80;;;;;;5063067;28;20174;-69
2022/01/22 13:29:35;;;;;;;0.53;0.53;;;-0.80;73.70;;;;;;5080979;28;20218;-70
2022/01/22 13:32:26;;;;;;;0.67;0.67;;;-0.80;74.10;;;;;;5074981;28;20170;-71
2022/01/22 13:34:59;;;;;;;0.80;0.80;;;-0.80;74.00;;;;;;5073254;28;20571;-69
2022/01/22 13:40:36;;;;;;;1.40;0.87;;;-0.80;74.00;;;;;;5076670;28;20177;-70
2022/01/22 13:48:38;;;;;;;0.87;0.83;;;-0.60;73.80;;;;;;5023629;28;20261;-70
2022/01/22 13:51:05;;;;;;;0.70;0.70;;;-0.60;73.30;;;;;;5031480;28;21042;-72
2022/01/22 13:53:32;;;;;;;1.40;0.60;;;-0.60;73.30;;;;;;5030667;28;20192;-73
2022/01/22 13:56:00;;;;;;;0.57;0.57;;;-0.50;73.50;;;;;;5026503;28;20192;-73
2022/01/22 13:58:26;;;;;;;2.23;0.70;;;-0.50;72.90;;;;;;5032969;28;20600;-75
2022/01/22 14:00:52;;;;;;;1.07;1.07;;;-0.50;72.30;;;;;;5009816;28;20191;-72
2022/01/22 14:05:51;;;;;;;0.60;0.60;;;-0.60;72.20;;;;;;5023912;28;20192;-73
2022/01/22 14:08:30;;;;;;;1.10;1.00;;;-0.50;72.70;;;;;;5031296;28;20664;-74
2022/01/22 14:11:12;;;;;;;0.73;0.70;;;-0.50;72.70;;;;;;5021379;28;20180;-71
2022/01/22 14:13:40;;;;;;;0.47;0.37;;;-0.50;72.60;;;;;;5028643;28;20218;-71
2022/01/22 14:16:16;;;;;;;1.33;0.40;;;-0.60;72.70;;;;;;5029334;28;20191;-72
2022/01/22 14:18:43;;;;;;;0.37;0.37;;;-0.60;72.60;;;;;;5031414;28;20640;-71
2022/01/22 14:21:15;;;;;;;0.73;0.60;;;-0.60;73.10;;;;;;5026387;28;20185;-71
2022/01/22 14:23:42;;;;;;;0.20;0.20;;;-0.60;73.20;;;;;;5012759;28;20192;-73
2022/01/22 14:26:09;;;;;;;0.57;0.57;;;-0.60;73.40;;;;;;5056783;28;20594;-74
2022/01/22 14:28:51;;;;;;;2.20;0.80;;;-0.60;73.60;;;;;;5068283;28;20240;-70
2022/01/22 14:31:38;;;;;;;2.07;1.47;;;-0.60;73.60;;;;;;5069358;28;20679;-71
2022/01/22 14:34:10;;;;;;;0.73;0.73;;;-0.60;73.60;;;;;;5072391;28;20569;-70
2022/01/22 14:36:42;;;;;;;0.70;0.70;;;-0.70;73.60;;;;;;5061817;28;20210;-71
2022/01/22 14:44:46;;;;;;;0.30;0.20;;;-0.90;73.60;;;;;;5072697;28;20192;-69
2022/01/22 14:47:17;;;;;;;0.50;0.50;;;-1.00;74.00;;;;;;5071781;28;20197;-70
2022/01/22 14:49:45;;;;;;;0.43;0.43;;;-1.10;74.70;;;;;;5065486;28;20187;-69
2022/01/22 14:52:13;;;;;;;0.20;0.20;;;-1.20;75.00;;;;;;5072572;28;20258;-68
2022/01/22 14:54:45;;;;;;;0.30;0.30;;;-1.30;75.10;;;;;;5069938;28;20182;-70
2022/01/22 14:57:13;;;;;;;0.40;0.40;;;-1.30;75.30;;;;;;5065520;28;20221;-70
2022/01/22 14:59:41;;;;;;;0.20;0.20;;;-1.40;76.10;;;;;;5071988;28;20193;-70
2022/01/22 15:02:07;;;;;;;0.30;0.30;;;-1.50;76.70;;;;;;5066398;28;20186;-70
2022/01/22 15:04:34;;;;;;;0.53;0.43;;;-1.60;77.10;;;;;;5071993;28;20195;-70
2022/01/22 15:07:02;;;;;;;0.30;0.30;;;-1.50;77.40;;;;;;5068182;28;20190;-71
2022/01/22 15:09:30;;;;;;;0.20;0.20;;;-1.60;77.90;;;;;;5071949;28;20175;-70